Time,TemperatureF,DewpointF,PressureIn,WindDirection,WindDirectionDegrees,WindSpeedMPH,WindSpeedGustMPH,Humidity,HourlyPrecipIn,Conditions,Clouds,dailyrainin,SolarRadiationWatts/m^2,SoftwareType,DateUTC
2013-04-23 00:06:00,73.8,70.0,30.01,SE,135,4.0,6.0,87,0.00,,,0.00,0,weatherlink.com 1.10,2013-04-23 10:06:00,
2013-04-23 00:20:00,74.0,69.0,30.01,SW,235,4.0,8.0,85,0.00,,,0.00,0,weatherlink.com 1.10,2013-04-23 10:20:00,
2013-04-23 00:35:00,74.1,69.0,30.00,East,80,3.0,8.0,84,0.00,,,0.00,0,weatherlink.com 1.10,2013-04-23 10:35:00,
2013-04-23 00:50:00,74.0,69.0,29.99,WNW,297,1.0,9.0,83,0.00,,,0.00,0,weatherlink.com 1.10,2013-04-23 10:50:00,
2013-04-23 01:06:00,73.9,69.0,29.99,East,90,1.0,6.0,84,0.00,,,0.00,0,weatherlink.com 1.10,2013-04-23 11:06:00,
2013-04-23 01:20:00,73.9,69.0,29.99,NNE,31,2.0,5.0,83,0.00,,,0.00,0,weatherlink.com 1.10,2013-04-23 11:20:00,
2013-04-23 01:35:00,74.1,69.0,29.99,ESE,102,0.0,5.0,83,0.00,,,0.00,0,weatherlink.com 1.10,2013-04-23 11:35:00,
2013-04-23 01:50:00,74.1,69.0,29.98,SW,236,0.0,4.0,83,0.00,,,0.00,0,weatherlink.com 1.10,2013-04-23 11:50:00,
2013-04-23 02:06:00,74.1,69.0,29.98,WSW,257,5.0,7.0,83,0.00,,,0.00,0,weatherlink.com 1.10,2013-04-23 12:06:00,
2013-04-23 02:20:00,74.0,69.0,29.97,WNW,286,1.0,5.0,83,0.00,,,0.00,0,weatherlink.com 1.10,2013-04-23 12:20:00,
2013-04-23 02:35:00,73.8,68.0,29.97,North,9,4.0,4.0,83,0.00,,,0.00,0,weatherlink.com 1.10,2013-04-23 12:35:00,
2013-04-23 02:50:00,73.6,68.0,29.97,NW,323,2.0,6.0,83,0.00,,,0.00,0,weatherlink.com 1.10,2013-04-23 12:50:00,
2013-04-23 03:06:00,73.6,68.0,29.97,ENE,63,1.0,4.0,83,0.00,,,0.00,0,weatherlink.com 1.10,2013-04-23 13:06:00,
2013-04-23 03:20:00,73.9,68.0,29.96,NNE,30,2.0,10.0,82,0.00,,,0.00,0,weatherlink.com 1.10,2013-04-23 13:20:00,
2013-04-23 03:35:00,74.0,68.0,29.96,ENE,65,4.0,7.0,82,0.00,,,0.00,0,weatherlink.com 1.10,2013-04-23 13:35:00,
2013-04-23 03:51:00,74.2,68.0,29.97,ENE,76,5.0,7.0,82,0.00,,,0.00,0,weatherlink.com 1.10,2013-04-23 13:51:00,
2013-04-23 04:06:00,74.2,68.0,29.96,North,355,2.0,6.0,82,0.00,,,0.00,0,weatherlink.com 1.10,2013-04-23 14:06:00,
2013-04-23 04:21:00,73.9,69.0,29.97,NW,320,1.0,8.0,83,0.00,,,0.00,0,weatherlink.com 1.10,2013-04-23 14:21:00,
2013-04-23 04:36:00,73.8,68.0,29.96,ENE,60,1.0,7.0,81,0.00,,,0.00,0,weatherlink.com 1.10,2013-04-23 14:36:00,
2013-04-23 04:51:00,73.8,68.0,29.97,NNW,340,2.0,7.0,82,0.00,,,0.00,0,weatherlink.com 1.10,2013-04-23 14:51:00,
2013-04-23 05:06:00,73.8,68.0,29.97,North,4,2.0,5.0,82,0.00,,,0.00,0,weatherlink.com 1.10,2013-04-23 15:06:00,
2013-04-23 05:21:00,74.0,68.0,29.97,NE,50,1.0,5.0,82,0.00,,,0.00,0,weatherlink.com 1.10,2013-04-23 15:21:00,
2013-04-23 05:36:00,74.3,68.0,29.97,ESE,114,3.0,8.0,81,0.00,,,0.00,0,weatherlink.com 1.10,2013-04-23 15:36:00,
2013-04-23 05:51:00,74.4,68.0,29.98,NNE,32,1.0,10.0,81,0.00,,,0.00,0,weatherlink.com 1.10,2013-04-23 15:51:00,
2013-04-23 06:06:00,74.4,68.0,29.98,NNE,26,4.0,7.0,81,0.00,,,0.00,9,weatherlink.com 1.10,2013-04-23 16:06:00,
2013-04-23 06:21:00,74.4,68.0,29.99,NNE,23,2.0,9.0,79,0.00,,,0.00,33,weatherlink.com 1.10,2013-04-23 16:21:00,
2013-04-23 06:36:00,75.1,68.0,29.99,WSW,240,2.0,9.0,78,0.00,,,0.00,63,weatherlink.com 1.10,2013-04-23 16:36:00,
2013-04-23 06:51:00,76.0,68.0,30.00,West,261,0.0,5.0,76,0.00,,,0.00,139,weatherlink.com 1.10,2013-04-23 16:51:00,
2013-04-23 07:06:00,76.6,68.0,30.00,WNW,282,3.0,11.0,75,0.00,,,0.00,225,weatherlink.com 1.10,2013-04-23 17:06:00,
2013-04-23 07:36:00,78.7,69.0,30.01,NNW,342,0.0,5.0,72,0.00,,,0.00,380,weatherlink.com 1.10,2013-04-23 17:36:00,
2013-04-23 07:51:00,78.9,70.0,30.01,North,353,4.0,6.0,73,0.00,,,0.00,373,weatherlink.com 1.10,2013-04-23 17:51:00,
2013-04-23 08:07:00,79.6,68.0,30.02,West,279,1.0,8.0,68,0.00,,,0.00,448,weatherlink.com 1.10,2013-04-23 18:07:00,
2013-04-23 08:22:00,80.7,69.0,30.02,North,359,2.0,7.0,67,0.00,,,0.00,496,weatherlink.com 1.10,2013-04-23 18:22:00,
2013-04-23 08:37:00,80.7,69.0,30.02,ENE,71,3.0,10.0,67,0.00,,,0.00,547,weatherlink.com 1.10,2013-04-23 18:37:00,
2013-04-23 08:52:00,81.3,72.0,30.02,ESE,103,9.0,12.0,73,0.00,,,0.00,610,weatherlink.com 1.10,2013-04-23 18:52:00,
2013-04-23 09:07:00,81.2,71.0,30.03,NNW,336,3.0,9.0,71,0.00,,,0.00,246,weatherlink.com 1.10,2013-04-23 19:07:00,
2013-04-23 09:22:00,82.4,71.0,30.03,SW,230,1.0,13.0,69,0.00,,,0.00,854,weatherlink.com 1.10,2013-04-23 19:22:00,
2013-04-23 09:37:00,81.3,71.0,30.03,NNE,27,1.0,9.0,72,0.00,,,0.00,304,weatherlink.com 1.10,2013-04-23 19:37:00,
2013-04-23 09:52:00,79.6,73.0,30.03,ENE,65,5.0,6.0,79,0.00,,,0.00,788,weatherlink.com 1.10,2013-04-23 19:52:00,
2013-04-23 10:07:00,76.4,71.0,30.03,East,83,5.0,10.0,84,0.01,,,0.01,162,weatherlink.com 1.10,2013-04-23 20:07:00,
2013-04-23 10:22:00,77.2,71.0,30.03,SW,215,5.0,8.0,82,0.01,,,0.01,229,weatherlink.com 1.10,2013-04-23 20:22:00,
2013-04-23 10:37:00,77.1,72.0,30.03,WSW,241,1.0,5.0,85,0.01,,,0.01,311,weatherlink.com 1.10,2013-04-23 20:37:00,
2013-04-23 10:52:00,76.3,71.0,30.04,North,11,3.0,6.0,84,0.01,,,0.01,397,weatherlink.com 1.10,2013-04-23 20:52:00,
2013-04-23 11:07:00,76.5,73.0,30.03,NNW,333,2.0,5.0,89,0.01,,,0.02,225,weatherlink.com 1.10,2013-04-23 21:07:00,
2013-04-23 11:22:00,75.1,71.0,30.04,NNW,342,7.0,11.0,88,0.03,,,0.04,142,weatherlink.com 1.10,2013-04-23 21:22:00,
2013-04-23 11:37:00,72.7,71.0,30.04,WNW,292,2.0,8.0,93,0.10,,,0.11,141,weatherlink.com 1.10,2013-04-23 21:37:00,
2013-04-23 11:52:00,73.6,72.0,30.04,SE,131,0.0,6.0,95,0.13,,,0.14,923,weatherlink.com 1.10,2013-04-23 21:52:00,
2013-04-23 12:07:00,73.8,72.0,30.03,ENE,76,1.0,7.0,94,0.12,,,0.14,197,weatherlink.com 1.10,2013-04-23 22:07:00,
2013-04-23 12:22:00,72.8,71.0,30.03,SW,234,2.0,6.0,93,0.10,,,0.15,193,weatherlink.com 1.10,2013-04-23 22:22:00,
2013-04-23 12:37:00,73.5,72.0,30.02,SE,144,4.0,6.0,95,0.06,,,0.17,258,weatherlink.com 1.10,2013-04-23 22:37:00,
2013-04-23 12:52:00,74.5,73.0,30.02,SE,145,1.0,3.0,94,0.03,,,0.17,413,weatherlink.com 1.10,2013-04-23 22:52:00,
2013-04-23 13:07:00,76.2,74.0,30.01,SE,132,1.0,5.0,91,0.03,,,0.17,974,weatherlink.com 1.10,2013-04-23 23:07:00,
2013-04-23 13:22:00,76.6,74.0,30.00,ENE,69,1.0,5.0,90,0.02,,,0.17,476,weatherlink.com 1.10,2013-04-23 23:22:00,
2013-04-23 13:37:00,77.8,74.0,30.00,North,355,4.0,10.0,87,0.00,,,0.17,564,weatherlink.com 1.10,2013-04-23 23:37:00,
2013-04-23 13:52:00,75.9,73.0,30.00,NNW,340,6.0,10.0,89,0.00,,,0.17,392,weatherlink.com 1.10,2013-04-23 23:52:00,
2013-04-23 14:08:00,76.1,72.0,29.99,North,3,7.0,12.0,87,0.00,,,0.17,378,weatherlink.com 1.10,2013-04-24 00:08:00,
2013-04-23 14:23:00,76.4,72.0,29.99,North,1,5.0,14.0,87,0.00,,,0.17,234,weatherlink.com 1.10,2013-04-24 00:23:00,
2013-04-23 14:38:00,74.7,72.0,29.99,NNW,339,7.0,13.0,91,0.00,,,0.17,258,weatherlink.com 1.10,2013-04-24 00:38:00,
2013-04-23 14:53:00,74.0,72.0,29.99,NNW,334,8.0,11.0,92,0.00,,,0.17,211,weatherlink.com 1.10,2013-04-24 00:53:00,
2013-04-23 15:08:00,74.2,72.0,29.98,North,349,6.0,9.0,93,0.00,,,0.17,216,weatherlink.com 1.10,2013-04-24 01:08:00,
2013-04-23 15:23:00,74.0,71.0,29.98,North,2,4.0,10.0,91,0.00,,,0.17,232,weatherlink.com 1.10,2013-04-24 01:23:00,
2013-04-23 15:38:00,74.6,72.0,29.98,North,350,5.0,10.0,91,0.00,,,0.17,302,weatherlink.com 1.10,2013-04-24 01:38:00,
2013-04-23 15:53:00,74.3,71.0,29.99,NNW,348,5.0,9.0,90,0.00,,,0.17,176,weatherlink.com 1.10,2013-04-24 01:53:00,
2013-04-23 16:08:00,74.0,71.0,29.98,NNE,28,6.0,8.0,91,0.00,,,0.17,172,weatherlink.com 1.10,2013-04-24 02:08:00,
2013-04-23 16:38:00,74.0,71.0,29.98,North,3,2.0,7.0,91,0.00,,,0.17,91,weatherlink.com 1.10,2013-04-24 02:38:00,
2013-04-23 16:53:00,73.9,71.0,29.98,NNW,348,3.0,6.0,91,0.00,,,0.17,44,weatherlink.com 1.10,2013-04-24 02:53:00,
2013-04-23 17:08:00,73.3,71.0,29.98,NNW,330,1.0,3.0,93,0.05,,,0.22,33,weatherlink.com 1.10,2013-04-24 03:08:00,
2013-04-23 17:23:00,72.6,71.0,29.98,NW,309,0.0,3.0,94,0.18,,,0.35,54,weatherlink.com 1.10,2013-04-24 03:23:00,
2013-04-23 17:38:00,72.4,71.0,29.99,WNW,297,3.0,6.0,94,0.18,,,0.35,35,weatherlink.com 1.10,2013-04-24 03:38:00,
2013-04-23 17:53:00,72.6,71.0,30.00,WNW,301,4.0,4.0,95,0.18,,,0.35,76,weatherlink.com 1.10,2013-04-24 03:53:00,
2013-04-23 18:08:00,72.5,71.0,30.00,NW,320,2.0,6.0,94,0.13,,,0.35,42,weatherlink.com 1.10,2013-04-24 04:08:00,
2013-04-23 18:23:00,72.6,71.0,30.00,WNW,297,2.0,6.0,95,0.00,,,0.35,21,weatherlink.com 1.10,2013-04-24 04:23:00,
2013-04-23 18:38:00,72.5,71.0,30.01,West,280,2.0,6.0,95,0.00,,,0.35,7,weatherlink.com 1.10,2013-04-24 04:38:00,
2013-04-23 18:53:00,72.4,71.0,30.02,NW,313,2.0,4.0,95,0.00,,,0.35,0,weatherlink.com 1.10,2013-04-24 04:53:00,
2013-04-23 19:08:00,72.4,71.0,30.02,WNW,292,0.0,4.0,95,0.00,,,0.35,0,weatherlink.com 1.10,2013-04-24 05:08:00,
2013-04-23 19:23:00,72.3,71.0,30.02,West,276,1.0,5.0,95,0.02,,,0.37,0,weatherlink.com 1.10,2013-04-24 05:23:00,
2013-04-23 19:39:00,72.1,71.0,30.02,West,279,0.0,4.0,95,0.03,,,0.38,0,weatherlink.com 1.10,2013-04-24 05:39:00,
2013-04-23 19:54:00,72.0,71.0,30.03,West,279,2.0,3.0,95,0.03,,,0.38,0,weatherlink.com 1.10,2013-04-24 05:54:00,
2013-04-23 20:08:00,71.9,71.0,30.04,West,270,2.0,4.0,95,0.03,,,0.38,0,weatherlink.com 1.10,2013-04-24 06:08:00,
2013-04-23 20:23:00,71.7,70.0,30.04,West,260,3.0,5.0,95,0.01,,,0.38,0,weatherlink.com 1.10,2013-04-24 06:23:00,
2013-04-23 20:38:00,71.8,71.0,30.04,WSW,240,2.0,4.0,96,0.00,,,0.38,0,weatherlink.com 1.10,2013-04-24 06:38:00,
2013-04-23 20:53:00,71.7,71.0,30.05,WSW,255,1.0,5.0,96,0.00,,,0.38,0,weatherlink.com 1.10,2013-04-24 06:53:00,
2013-04-23 21:09:00,71.7,71.0,30.05,West,265,3.0,4.0,96,0.00,,,0.38,0,weatherlink.com 1.10,2013-04-24 07:09:00,
2013-04-23 21:24:00,71.6,70.0,30.06,WSW,254,4.0,6.0,96,0.00,,,0.38,0,weatherlink.com 1.10,2013-04-24 07:24:00,
2013-04-23 21:39:00,71.6,70.0,30.06,West,262,3.0,5.0,96,0.00,,,0.38,0,weatherlink.com 1.10,2013-04-24 07:39:00,
2013-04-23 21:54:00,71.6,70.0,30.07,WNW,293,1.0,4.0,96,0.00,,,0.38,0,weatherlink.com 1.10,2013-04-24 07:54:00,
2013-04-23 22:09:00,71.6,70.0,30.07,WNW,284,3.0,4.0,96,0.00,,,0.38,0,weatherlink.com 1.10,2013-04-24 08:09:00,
2013-04-23 22:24:00,71.6,70.0,30.07,West,278,3.0,5.0,96,0.00,,,0.38,0,weatherlink.com 1.10,2013-04-24 08:24:00,
2013-04-23 22:39:00,71.6,70.0,30.07,West,261,1.0,4.0,96,0.00,,,0.38,0,weatherlink.com 1.10,2013-04-24 08:39:00,
2013-04-23 22:54:00,71.6,70.0,30.07,SE,124,4.0,4.0,96,0.00,,,0.38,0,weatherlink.com 1.10,2013-04-24 08:54:00,
2013-04-23 23:09:00,71.4,70.0,30.07,SE,124,1.0,4.0,96,0.00,,,0.38,0,weatherlink.com 1.10,2013-04-24 09:09:00,
2013-04-23 23:24:00,71.4,70.0,30.07,SE,138,2.0,3.0,96,0.01,,,0.39,0,weatherlink.com 1.10,2013-04-24 09:24:00,
2013-04-23 23:39:00,71.3,70.0,30.07,SE,130,0.0,5.0,96,0.06,,,0.44,0,weatherlink.com 1.10,2013-04-24 09:39:00,
2013-04-23 23:54:00,71.2,70.0,30.06,ESE,114,1.0,3.0,96,0.10,,,0.48,0,weatherlink.com 1.10,2013-04-24 09:54:00,